VIAG/AGR METAR and TAF weather

Enter ICAO airport designator
Station Type Date Time Source
VIAG METAR 2019/02/16 03:30 UTC NOAA

VIAG 160330Z 29004KT 1500 BR BKN015 SCT020 15/15 Q1019 BECMG 2000


Station Type Date Time Source
VIAG Decoded METAR 2019/02/16 03:30 UTC NOAA

Agra, India (VIAG) 27-09N 077-58E 169M
Feb 15, 2019 - 10:30 PM EST / 2019.02.16 0330 UTC
Wind: from the WNW (290 degrees) at 5 MPH (4 KT):0
Visibility: less than 1 mile:0
Sky conditions: mostly cloudy
Weather: mist
Temperature: 59 F (15 C)
Dew Point: 59 F (15 C)
Relative Humidity: 100%
Pressure (altimeter): 30.09 in. Hg (1019 hPa)
ob: VIAG 160330Z 29004KT 1500 BR BKN015 SCT020 15/15 Q1019 BECMG 2000
cycle: 3

Station Type Date Time Source
VIAG TAF 2019/02/16 06:30 UTC NOAA

TAF VIAG 160330Z 1606/1618 29010KT 2500 HZ SCT020 BKN090
BECMG 1608/1610 4000 HZ
TEMPO 1610/1614 FEW030TCU/CB


Example: see airport list